createdAt,value
2018-11-03T00:02:11.018Z,27.93
2018-11-03T00:04:41.263Z,26.83
2018-11-03T00:07:11.581Z,28.50
2018-11-03T00:09:42.000Z,30.43
2018-11-03T00:12:12.196Z,30.73
2018-11-03T00:14:42.364Z,28.63
2018-11-03T00:17:12.503Z,31.10
2018-11-03T00:19:42.684Z,30.00
2018-11-03T00:22:12.858Z,29.00
2018-11-03T00:24:43.114Z,29.47
2018-11-03T00:27:13.354Z,38.70
2018-11-03T00:29:43.534Z,30.63
2018-11-03T00:32:13.672Z,30.23
2018-11-03T00:34:43.857Z,31.63
2018-11-03T00:37:13.979Z,29.53
2018-11-03T00:39:44.111Z,26.10
2018-11-03T00:42:14.246Z,33.23
2018-11-03T00:44:44.520Z,32.63
2018-11-03T00:47:14.844Z,27.50
2018-11-03T00:49:45.135Z,29.03
2018-11-03T00:52:15.256Z,24.10
2018-11-03T00:54:45.476Z,29.07
2018-11-03T00:57:15.716Z,29.03
2018-11-03T00:59:45.932Z,39.20
2018-11-03T01:02:16.236Z,29.50
2018-11-03T01:04:46.413Z,27.97
2018-11-03T01:07:16.680Z,23.23
2018-11-03T01:09:46.986Z,27.20
2018-11-03T01:12:17.123Z,32.10
2018-11-03T01:14:47.390Z,28.40
2018-11-03T01:17:17.650Z,27.13
2018-11-03T01:19:47.869Z,24.63
2018-11-03T01:22:18.064Z,27.83
2018-11-03T01:24:48.211Z,23.33
2018-11-03T01:27:18.452Z,30.73
2018-11-03T01:29:48.819Z,32.13
2018-11-03T01:32:18.993Z,29.60
2018-11-03T01:34:49.184Z,30.27
2018-11-03T01:37:19.363Z,28.70
2018-11-03T01:39:49.495Z,29.00
2018-11-03T01:42:19.761Z,24.50
2018-11-03T01:44:49.909Z,35.03
2018-11-03T01:47:20.063Z,28.27
2018-11-03T01:49:50.197Z,29.37
2018-11-03T01:52:20.499Z,25.57
2018-11-03T01:54:50.665Z,31.13
2018-11-03T01:57:20.839Z,29.93
2018-11-03T01:59:51.163Z,25.90
2018-11-03T02:02:21.310Z,24.73
2018-11-03T02:04:51.460Z,24.33
2018-11-03T02:07:21.639Z,28.80
2018-11-03T02:09:51.807Z,25.70
2018-11-03T02:12:21.967Z,21.70
2018-11-03T02:14:52.271Z,25.80
2018-11-03T02:17:22.359Z,22.53
2018-11-03T02:19:52.628Z,23.27
2018-11-03T02:22:22.823Z,25.87
2018-11-03T02:24:53.004Z,25.30
2018-11-03T02:27:23.222Z,27.23
2018-11-03T02:29:53.480Z,23.40
2018-11-03T02:32:23.717Z,21.93
2018-11-03T02:34:53.875Z,30.83
2018-11-03T02:37:24.045Z,31.77
2018-11-03T02:39:54.224Z,24.97
2018-11-03T02:42:24.443Z,21.57
2018-11-03T02:44:54.637Z,21.87
2018-11-03T02:47:24.818Z,26.70
2018-11-03T02:49:54.959Z,34.10
2018-11-03T02:52:25.379Z,32.03
2018-11-03T02:54:55.597Z,32.40
2018-11-03T02:57:25.899Z,24.50
2018-11-03T02:59:56.210Z,20.80
2018-11-03T03:02:26.337Z,23.07
2018-11-03T03:04:56.458Z,25.70
2018-11-03T03:07:26.572Z,25.70
2018-11-03T03:09:56.779Z,26.23
2018-11-03T03:12:26.890Z,27.40
2018-11-03T03:14:57.213Z,23.03
2018-11-03T03:17:27.325Z,26.40
2018-11-03T03:19:57.471Z,25.67
2018-11-03T03:22:27.650Z,24.07
2018-11-03T03:24:57.893Z,32.07
2018-11-03T03:27:28.098Z,20.63
2018-11-03T03:29:58.253Z,21.07
2018-11-03T03:32:28.376Z,23.03
2018-11-03T03:34:58.628Z,22.57
2018-11-03T03:37:28.758Z,23.80
2018-11-03T03:39:58.935Z,22.20
2018-11-03T03:42:29.635Z,34.87
2018-11-03T03:44:59.771Z,24.27
2018-11-03T03:47:29.922Z,21.47
2018-11-03T03:50:00.096Z,22.20
2018-11-03T03:52:30.221Z,27.00
2018-11-03T03:55:00.415Z,23.43
2018-11-03T03:57:30.651Z,20.07
2018-11-03T04:00:00.871Z,17.77
2018-11-03T04:02:31.068Z,19.73
2018-11-03T04:05:01.303Z,20.57
2018-11-03T04:07:31.437Z,17.90
2018-11-03T04:10:01.627Z,20.93
2018-11-03T04:12:31.840Z,19.93
2018-11-03T04:15:02.110Z,26.17
2018-11-03T04:17:32.297Z,23.10
2018-11-03T04:20:02.631Z,18.83
2018-11-03T04:22:32.870Z,23.10
2018-11-03T04:25:03.125Z,24.93
2018-11-03T04:27:33.286Z,25.50
2018-11-03T04:30:03.443Z,22.93
2018-11-03T04:32:33.723Z,18.23
2018-11-03T04:35:03.877Z,22.30
2018-11-03T04:37:34.249Z,22.30
2018-11-03T04:40:04.972Z,23.23
2018-11-03T04:42:35.311Z,20.53
2018-11-03T04:45:06.119Z,19.47
2018-11-03T04:47:36.389Z,26.20
2018-11-03T04:50:07.207Z,26.40
2018-11-03T04:52:37.427Z,23.13
2018-11-03T04:55:09.067Z,24.43
2018-11-03T04:57:39.275Z,21.93
2018-11-03T05:00:10.654Z,25.27
2018-11-03T05:02:40.953Z,23.13
2018-11-03T05:05:11.625Z,20.43
2018-11-03T05:07:41.788Z,29.40
2018-11-03T05:10:11.943Z,19.33
2018-11-03T05:12:42.124Z,26.20
2018-11-03T05:15:12.306Z,21.20
2018-11-03T05:17:42.474Z,31.83
2018-11-03T05:20:12.594Z,24.37
2018-11-03T05:22:42.721Z,23.20
2018-11-03T05:25:12.849Z,21.37
2018-11-03T05:27:43.115Z,22.20
2018-11-03T05:30:13.289Z,23.33
2018-11-03T05:32:43.416Z,29.27
2018-11-03T05:35:13.512Z,25.13
2018-11-03T05:37:43.675Z,24.80
2018-11-03T05:40:13.786Z,22.63
2018-11-03T05:42:43.943Z,24.30
2018-11-03T05:45:14.084Z,22.13
2018-11-03T05:47:44.257Z,19.40
2018-11-03T05:50:14.469Z,25.10
2018-11-03T05:52:44.663Z,25.40
2018-11-03T05:55:14.860Z,30.60
2018-11-03T05:57:45.049Z,26.07
2018-11-03T06:00:15.233Z,23.03
2018-11-03T06:02:45.304Z,33.03
2018-11-03T06:05:15.488Z,26.27
2018-11-03T06:07:45.688Z,30.27
2018-11-03T06:10:15.826Z,23.67
2018-11-03T06:12:45.950Z,25.50
2018-11-03T06:15:16.083Z,26.70
2018-11-03T06:17:46.204Z,26.40
2018-11-03T06:20:16.410Z,31.20
2018-11-03T06:22:46.551Z,26.43
2018-11-03T06:25:16.742Z,27.07
2018-11-03T06:27:47.008Z,26.57
2018-11-03T06:30:17.106Z,31.53
2018-11-03T06:32:47.193Z,30.17
2018-11-03T06:35:17.372Z,30.73
2018-11-03T06:37:47.488Z,27.10
2018-11-03T06:40:17.668Z,30.77
2018-11-03T06:42:47.932Z,27.87
2018-11-03T06:45:18.081Z,27.87
2018-11-03T06:47:48.314Z,32.13
2018-11-03T06:53:45.255Z,30.30
2018-11-03T06:56:15.407Z,30.13
2018-11-03T06:58:45.560Z,30.57
2018-11-03T07:01:15.716Z,34.77
2018-11-03T07:03:45.873Z,34.50
2018-11-03T07:06:16.074Z,31.27
2018-11-03T07:08:46.254Z,32.57
2018-11-03T07:11:16.519Z,28.97
2018-11-03T07:13:46.731Z,29.40
2018-11-03T07:16:16.850Z,32.13
2018-11-03T07:18:47.015Z,41.70
2018-11-03T07:21:17.134Z,28.37
2018-11-03T07:23:47.312Z,36.70
2018-11-03T07:26:17.587Z,48.40
2018-11-03T07:28:47.737Z,37.47
2018-11-03T07:31:17.938Z,39.37
2018-11-03T07:33:48.104Z,37.33
2018-11-03T07:36:18.356Z,38.20
2018-11-03T07:38:48.582Z,37.57
2018-11-03T07:41:18.884Z,45.83
2018-11-03T07:43:49.721Z,35.57
2018-11-03T07:46:19.953Z,41.57
2018-11-03T07:48:50.236Z,31.67
2018-11-03T07:51:20.352Z,35.27
2018-11-03T07:53:50.616Z,33.63
2018-11-03T07:56:20.781Z,35.63
2018-11-03T07:58:50.910Z,34.40
2018-11-03T08:01:21.073Z,37.17
2018-11-03T08:03:51.331Z,35.17
2018-11-03T08:06:21.686Z,40.03
2018-11-03T08:08:51.970Z,38.37
2018-11-03T08:11:22.206Z,33.60
2018-11-03T08:13:52.495Z,40.57
2018-11-03T08:16:22.823Z,35.63
2018-11-03T08:18:53.170Z,34.37
2018-11-03T08:21:23.337Z,40.43
2018-11-03T08:23:53.637Z,39.57
2018-11-03T08:26:23.774Z,44.63
2018-11-03T08:28:54.053Z,49.63
2018-11-03T08:31:25.801Z,42.50
2018-11-03T08:33:56.013Z,40.63
2018-11-03T08:36:33.176Z,46.30
2018-11-03T08:39:04.280Z,34.70
2018-11-03T08:41:34.436Z,36.67
2018-11-03T08:44:04.667Z,34.00
2018-11-03T08:46:34.762Z,29.13
2018-11-03T08:49:10.591Z,28.37
2018-11-03T08:51:41.063Z,30.40
2018-11-03T08:54:14.158Z,30.37
2018-11-03T08:56:44.283Z,30.23
2018-11-03T08:59:14.535Z,29.77
2018-11-03T09:01:44.664Z,29.07
2018-11-03T09:04:14.803Z,24.93
2018-11-03T09:06:44.968Z,21.50
2018-11-03T09:09:15.132Z,27.97
2018-11-03T09:11:45.344Z,26.90
2018-11-03T09:14:19.262Z,29.53
2018-11-03T09:16:49.559Z,27.97
2018-11-03T09:19:19.819Z,28.27
2018-11-03T09:21:50.090Z,28.93
2018-11-03T09:24:21.166Z,26.40
2018-11-03T09:26:51.303Z,26.97
2018-11-03T09:29:21.499Z,29.33
2018-11-03T09:31:51.643Z,30.77
2018-11-03T09:34:21.833Z,28.07
2018-11-03T09:36:51.942Z,23.70
2018-11-03T09:39:22.157Z,27.17
2018-11-03T09:41:52.260Z,31.80
2018-11-03T09:44:22.451Z,30.30
2018-11-03T09:46:52.795Z,31.70
2018-11-03T09:49:25.211Z,38.50
2018-11-03T09:51:55.678Z,41.60
2018-11-03T09:54:25.776Z,46.00
2018-11-03T09:56:55.915Z,54.60
2018-11-03T09:59:26.075Z,39.83
2018-11-03T10:01:56.276Z,42.77
2018-11-03T10:04:26.444Z,35.23
2018-11-03T10:06:56.575Z,42.27
2018-11-03T10:09:27.479Z,41.30
2018-11-03T10:11:57.661Z,35.40
2018-11-03T10:14:27.831Z,37.47
2018-11-03T10:16:58.189Z,35.57
2018-11-03T10:19:28.323Z,41.07
2018-11-03T10:21:58.444Z,30.37
2018-11-03T10:24:28.598Z,36.77
2018-11-03T10:26:58.790Z,38.23
2018-11-03T10:29:29.025Z,39.00
2018-11-03T10:31:59.247Z,35.60
2018-11-03T10:34:35.277Z,36.53
2018-11-03T10:37:10.426Z,31.10
2018-11-03T10:39:43.903Z,34.60
2018-11-03T10:42:16.316Z,42.53
2018-11-03T10:44:46.549Z,28.03
2018-11-03T10:47:16.698Z,33.53
2018-11-03T10:49:46.832Z,31.70
2018-11-03T10:52:16.996Z,32.00
2018-11-03T10:54:47.107Z,27.33
2018-11-03T10:57:17.347Z,28.00
2018-11-03T10:59:47.697Z,26.90
2018-11-03T11:02:23.105Z,25.20
2018-11-03T11:04:58.561Z,24.37
2018-11-03T11:07:33.681Z,20.97
2018-11-03T11:10:08.955Z,28.63
2018-11-03T11:12:44.088Z,24.07
2018-11-03T11:15:16.157Z,18.53
2018-11-03T11:17:46.406Z,24.03
2018-11-03T11:20:23.097Z,20.23
2018-11-03T11:22:53.830Z,21.67
2018-11-03T11:25:25.537Z,21.37
2018-11-03T11:27:56.024Z,25.47
2018-11-03T11:30:32.248Z,21.80
2018-11-03T11:33:04.825Z,23.57
2018-11-03T11:35:38.851Z,26.33
2018-11-03T11:38:12.495Z,22.47
2018-11-03T11:40:44.098Z,17.40
2018-11-03T11:43:21.680Z,21.77
2018-11-03T11:45:51.889Z,22.03
2018-11-03T11:48:22.222Z,22.50
2018-11-03T11:50:52.496Z,21.23
2018-11-03T11:53:22.829Z,22.27
2018-11-03T11:55:53.058Z,21.47
2018-11-03T11:58:23.198Z,18.90
2018-11-03T12:00:55.014Z,23.90
2018-11-03T12:03:25.242Z,19.00
2018-11-03T12:05:56.485Z,20.23
2018-11-03T12:08:26.618Z,24.53
2018-11-03T12:10:56.885Z,24.03
2018-11-03T12:13:27.001Z,26.80
2018-11-03T12:15:57.234Z,19.50
2018-11-03T12:18:27.364Z,23.10
2018-11-03T12:20:57.741Z,24.20
2018-11-03T12:23:28.209Z,19.73
2018-11-03T12:25:58.487Z,20.87
2018-11-03T12:28:28.749Z,15.77
2018-11-03T12:30:59.040Z,14.30
2018-11-03T12:33:29.166Z,11.57
2018-11-03T12:35:59.312Z,13.10
2018-11-03T12:38:29.423Z,10.43
2018-11-03T12:41:01.211Z,12.57
2018-11-03T12:43:31.472Z,16.97
2018-11-03T12:46:01.893Z,10.43
2018-11-03T12:48:36.352Z,15.73
2018-11-03T12:51:06.909Z,12.57
2018-11-03T12:53:37.105Z,10.80
2018-11-03T12:56:07.646Z,15.23
2018-11-03T12:58:38.493Z,11.87
2018-11-03T13:01:09.040Z,12.33
2018-11-03T13:03:39.274Z,9.77
2018-11-03T13:06:09.449Z,11.53
2018-11-03T13:08:41.811Z,13.23
2018-11-03T13:11:11.922Z,9.60
2018-11-03T13:13:42.362Z,13.13
2018-11-03T13:16:12.457Z,13.83
2018-11-03T13:18:42.619Z,10.10
2018-11-03T13:21:12.762Z,9.60
2018-11-03T13:23:42.850Z,8.70
2018-11-03T13:26:13.112Z,9.50
2018-11-03T13:28:43.253Z,14.03
2018-11-03T13:31:19.933Z,13.10
2018-11-03T13:33:50.048Z,8.40
2018-11-03T13:36:20.299Z,9.30
2018-11-03T13:38:50.449Z,14.07
2018-11-03T13:41:20.601Z,10.70
2018-11-03T13:43:50.809Z,12.10
2018-11-03T13:46:20.923Z,10.00
2018-11-03T13:48:51.020Z,9.10
2018-11-03T13:51:21.223Z,11.17
2018-11-03T13:53:51.340Z,10.07
2018-11-03T13:56:21.458Z,8.23
2018-11-03T13:58:51.684Z,7.67
2018-11-03T14:01:21.893Z,12.57
2018-11-03T14:03:51.955Z,6.23
2018-11-03T14:06:23.116Z,7.43
2018-11-03T14:08:53.200Z,9.10
2018-11-03T14:11:23.327Z,11.83
2018-11-03T14:13:53.411Z,8.60
2018-11-03T14:16:24.118Z,9.87
2018-11-03T14:18:54.228Z,10.80
2018-11-03T14:21:24.313Z,9.83
2018-11-03T14:23:54.393Z,12.23
2018-11-03T14:26:24.525Z,10.97
2018-11-03T14:28:54.779Z,11.13
2018-11-03T14:31:24.918Z,10.13
2018-11-03T14:33:55.016Z,14.70
2018-11-03T14:36:25.285Z,10.30
2018-11-03T14:38:55.308Z,13.80
2018-11-03T14:41:26.389Z,9.30
2018-11-03T14:43:57.297Z,7.10
2018-11-03T14:46:27.624Z,8.60
2018-11-03T14:48:57.731Z,9.17
2018-11-03T14:51:27.929Z,6.80
2018-11-03T14:53:58.162Z,8.10
2018-11-03T14:56:28.305Z,7.23
2018-11-03T14:58:58.382Z,5.80
2018-11-03T15:01:28.483Z,5.97
2018-11-03T15:03:58.574Z,5.37
2018-11-03T15:06:29.029Z,4.63
2018-11-03T15:08:59.195Z,7.17
2018-11-03T15:11:29.300Z,8.03
2018-11-03T15:13:59.516Z,7.40
2018-11-03T15:16:29.644Z,7.30
2018-11-03T15:18:59.754Z,6.37
2018-11-03T15:21:29.946Z,5.30
2018-11-03T15:24:00.086Z,5.47
2018-11-03T15:26:30.301Z,4.43
2018-11-03T15:29:00.404Z,3.93
2018-11-03T15:31:30.521Z,6.07
2018-11-03T15:34:00.643Z,6.00
2018-11-03T15:36:30.878Z,7.87
2018-11-03T15:39:00.963Z,6.00
2018-11-03T15:41:31.130Z,5.00
2018-11-03T15:44:01.186Z,4.20
2018-11-03T15:46:31.395Z,9.00
2018-11-03T15:49:01.687Z,6.83
2018-11-03T15:51:31.841Z,6.60
2018-11-03T15:54:02.107Z,7.37
2018-11-03T15:56:32.253Z,7.77
2018-11-03T15:59:02.425Z,7.60
2018-11-03T16:01:32.531Z,7.83
2018-11-03T16:04:02.673Z,6.17
2018-11-03T16:06:32.762Z,7.53
2018-11-03T16:09:02.941Z,8.13
2018-11-03T16:11:33.152Z,6.77
2018-11-03T16:14:03.414Z,12.10
2018-11-03T16:16:33.604Z,11.57
2018-11-03T16:19:04.937Z,8.13
2018-11-03T16:21:35.199Z,11.23
2018-11-03T16:24:05.432Z,9.93
2018-11-03T16:26:35.600Z,11.83
2018-11-03T16:29:05.869Z,9.00
2018-11-03T16:31:36.012Z,10.00
2018-11-03T16:34:06.623Z,11.00
2018-11-03T16:36:36.866Z,10.37
2018-11-03T16:39:10.318Z,12.17
2018-11-03T16:41:40.544Z,10.27
2018-11-03T16:44:10.884Z,14.07
2018-11-03T16:46:41.134Z,12.00
2018-11-03T16:49:11.367Z,9.40
2018-11-03T16:51:41.524Z,8.20
2018-11-03T16:54:12.756Z,10.83
2018-11-03T16:56:42.994Z,13.23
2018-11-03T16:59:13.934Z,9.37
2018-11-03T17:01:44.064Z,11.17
2018-11-03T17:04:14.341Z,14.50
2018-11-03T17:06:44.943Z,11.30
2018-11-03T17:09:15.334Z,12.50
2018-11-03T17:11:45.488Z,15.93
2018-11-03T17:14:16.819Z,14.20
2018-11-03T17:16:46.976Z,13.00
2018-11-03T17:19:17.166Z,17.23
2018-11-03T17:21:47.502Z,25.90
2018-11-03T17:24:18.099Z,16.80
2018-11-03T17:26:48.456Z,15.13
2018-11-03T17:29:18.560Z,16.63
2018-11-03T17:31:48.851Z,14.90
2018-11-03T17:34:19.157Z,20.90
2018-11-03T17:36:49.643Z,19.67
2018-11-03T17:39:20.024Z,20.70
2018-11-03T17:41:50.403Z,50.23
2018-11-03T17:44:20.693Z,41.47
2018-11-03T17:46:53.389Z,34.53
2018-11-03T17:49:24.552Z,20.10
2018-11-03T17:51:56.959Z,22.17
2018-11-03T17:54:28.341Z,21.77
2018-11-03T17:56:58.708Z,20.07
2018-11-03T17:59:29.433Z,40.70
2018-11-03T18:01:59.807Z,40.27
2018-11-03T18:04:31.544Z,28.23
2018-11-03T18:07:02.643Z,25.03
2018-11-03T18:09:34.258Z,22.20
2018-11-03T18:12:04.563Z,22.03
2018-11-03T18:14:34.848Z,21.00
2018-11-03T18:17:05.011Z,23.63
2018-11-03T18:19:35.325Z,22.83
2018-11-03T18:22:05.635Z,25.10
2018-11-03T18:24:35.940Z,29.83
2018-11-03T18:27:09.660Z,27.50
2018-11-03T18:29:39.854Z,37.30
2018-11-03T18:32:11.117Z,38.30
2018-11-03T18:34:41.369Z,28.73
2018-11-03T18:37:11.656Z,24.30
2018-11-03T18:39:41.880Z,20.40
2018-11-03T18:42:12.223Z,20.90
2018-11-03T18:44:43.611Z,23.83
2018-11-03T18:47:13.916Z,26.70
2018-11-03T18:49:44.200Z,22.20
2018-11-03T18:52:14.434Z,24.33
2018-11-03T18:54:44.829Z,18.00
2018-11-03T18:57:16.091Z,20.70
2018-11-03T18:59:46.273Z,21.67
2018-11-03T19:02:16.545Z,25.40
2018-11-03T19:04:46.750Z,19.37
2018-11-03T19:07:17.141Z,24.20
2018-11-03T19:09:47.383Z,24.60
2018-11-03T19:12:17.618Z,22.80
2018-11-03T19:14:48.293Z,26.17
2018-11-03T19:17:18.886Z,28.10
2018-11-03T19:19:49.444Z,27.33
2018-11-03T19:22:19.929Z,48.60
2018-11-03T19:24:50.206Z,42.67
2018-11-03T19:27:20.521Z,37.37
2018-11-03T19:29:50.980Z,29.73
2018-11-03T19:32:22.957Z,31.30
2018-11-03T19:34:53.166Z,28.03
2018-11-03T19:37:23.334Z,35.07
2018-11-03T19:39:53.475Z,37.17
2018-11-03T19:42:23.774Z,32.97
2018-11-03T19:44:54.009Z,34.20
2018-11-03T19:47:24.210Z,34.93
2018-11-03T19:49:54.456Z,52.13
2018-11-03T19:52:24.620Z,45.60
2018-11-03T19:54:54.843Z,39.70
2018-11-03T19:57:25.186Z,42.20
2018-11-03T19:59:55.362Z,46.37
2018-11-03T20:02:25.592Z,40.00
2018-11-03T20:04:55.834Z,39.50
2018-11-03T20:07:26.118Z,49.50
2018-11-03T20:09:56.337Z,37.20
2018-11-03T20:12:26.460Z,35.10
2018-11-03T20:14:56.603Z,27.80
2018-11-03T20:17:26.891Z,30.93
2018-11-03T20:19:57.428Z,28.17
2018-11-03T20:22:27.587Z,38.23
2018-11-03T20:24:57.785Z,39.43
2018-11-03T20:27:28.204Z,37.20
2018-11-03T20:29:59.126Z,31.10
2018-11-03T20:32:29.428Z,27.53
2018-11-03T20:34:59.661Z,36.50
2018-11-03T20:37:29.844Z,36.50
2018-11-03T20:40:00.024Z,30.40
2018-11-03T20:42:30.283Z,37.83
2018-11-03T20:45:00.382Z,34.57
2018-11-03T20:47:30.520Z,36.40
2018-11-03T20:50:00.723Z,37.43
2018-11-03T20:52:31.010Z,35.00
2018-11-03T20:55:01.194Z,40.70
2018-11-03T20:57:31.387Z,34.90
2018-11-03T21:00:01.507Z,36.27
2018-11-03T21:02:31.665Z,40.63
2018-11-03T21:05:02.368Z,41.73
2018-11-03T21:07:33.072Z,54.30
2018-11-03T21:10:03.230Z,40.67
2018-11-03T21:12:33.449Z,39.00
2018-11-03T21:15:03.527Z,42.33
2018-11-03T21:17:33.943Z,46.20
2018-11-03T21:20:04.489Z,39.93
2018-11-03T21:22:34.650Z,40.57
2018-11-03T21:25:04.887Z,36.83
2018-11-03T21:27:35.135Z,37.13
2018-11-03T21:30:06.058Z,37.30
2018-11-03T21:32:36.859Z,42.47
2018-11-03T21:35:07.265Z,38.07
2018-11-03T21:37:37.998Z,39.03
2018-11-03T21:40:09.197Z,42.53
2018-11-03T21:42:39.337Z,45.40
2018-11-03T21:45:09.817Z,40.07
2018-11-03T21:47:40.136Z,36.40
2018-11-03T21:50:10.868Z,38.70
2018-11-03T21:52:41.027Z,36.17
2018-11-03T21:55:11.196Z,42.40
2018-11-03T21:57:44.378Z,37.70
2018-11-03T22:00:14.487Z,35.23
2018-11-03T22:02:44.699Z,37.23
2018-11-03T22:05:15.140Z,40.77
2018-11-03T22:07:45.432Z,33.33
2018-11-03T22:10:15.610Z,41.00
2018-11-03T22:12:45.788Z,40.13
2018-11-03T22:15:15.927Z,42.03
2018-11-03T22:17:46.177Z,40.73
2018-11-03T22:20:16.283Z,45.30
2018-11-03T22:22:46.543Z,37.60
2018-11-03T22:25:16.726Z,44.83
2018-11-03T22:27:47.053Z,40.67
2018-11-03T22:30:17.199Z,40.13
2018-11-03T22:32:47.455Z,40.77
2018-11-03T22:35:17.707Z,35.67
2018-11-03T22:37:47.899Z,41.43
2018-11-03T22:40:18.044Z,40.57
2018-11-03T22:42:48.369Z,39.57
2018-11-03T22:45:18.528Z,39.53
2018-11-03T22:47:48.711Z,45.20
2018-11-03T22:50:18.966Z,42.73
2018-11-03T22:52:49.259Z,39.70
2018-11-03T22:55:19.414Z,38.50
2018-11-03T22:57:49.615Z,34.07
2018-11-03T23:00:19.775Z,42.57
2018-11-03T23:02:49.964Z,45.43
2018-11-03T23:05:20.197Z,35.60
2018-11-03T23:07:50.340Z,42.60
2018-11-03T23:10:20.544Z,44.90
2018-11-03T23:12:50.708Z,41.63
2018-11-03T23:15:20.836Z,35.53
2018-11-03T23:17:51.061Z,45.17
2018-11-03T23:20:21.277Z,42.37
2018-11-03T23:22:51.497Z,45.27
2018-11-03T23:25:21.645Z,49.10
2018-11-03T23:27:51.889Z,43.77
2018-11-03T23:30:22.126Z,40.73
2018-11-03T23:32:52.287Z,41.83
2018-11-03T23:35:22.510Z,43.47
2018-11-03T23:37:52.680Z,42.13
2018-11-03T23:40:22.859Z,38.77
2018-11-03T23:42:53.026Z,37.67
2018-11-03T23:45:23.261Z,42.03
2018-11-03T23:47:53.432Z,41.80
2018-11-03T23:50:23.617Z,39.20
2018-11-03T23:52:53.733Z,42.37
2018-11-03T23:55:23.884Z,42.67
2018-11-03T23:57:54.071Z,43.30
